Pescabona4 — CNA4018 — position and weather

sailwx.info

Track history (hours):
 
Tides and Currents Weather Stations Pressure Air Temp Water Temp Dewpoint Dewpoint Depression Visibility Wind Speed Wind Dir Waves Ship Positions

Pescabona4

Last reported at 2017-Sep-18 18:11 UTC. Time now 2017-Sep-22 11:57 UTC.
Position N 34°21' W 007°00'.

Length 28 m; draft 3.6 m.

MMSI: 242007100.

Date/timePositionNaut miles runAvg speedWind from/ knotsBaromVisibWave heightAir tempDewpointWater temp
2017-Sep-18 18:11N 34°21' W 007°00'  
2017-Sep-13 14:47N 34°60' W 007°04'1 2.9
2017-Sep-13 14:16N 35°01' W 007°02'1 2.8
2017-Sep-13 14:00N 35°00' W 007°01'1 2.9
2017-Sep-13 13:30N 35°00' W 006°59'3 3.4
2017-Sep-13 12:35N 34°58' W 006°56'5 0.5
2017-Sep-13 02:42N 35°00' W 007°02'1 3.0
2017-Sep-13 02:26N 35°00' W 007°01'  
2017-Sep-08 22:57N 35°46' W 006°48'6 9.6
2017-Sep-08 22:18N 35°45' W 006°41'310.0
2017-Sep-08 22:00N 35°45' W 006°37'  
Track history (hours):
 
Tides and Currents Weather Stations Pressure Air Temp Water Temp Dewpoint Dewpoint Depression Visibility Wind Speed Wind Dir Waves Ship Positions

Pescabona4

Last reported at 2017-Sep-18 18:11 UTC. Time now 2017-Sep-22 11:57 UTC.
Position N 34°21' W 007°00'.

Length 28 m; draft 3.6 m.

MMSI: 242007100.

Date/timePositionNaut miles runAvg speedWind from/ knotsBaromVisibWave heightAir tempDewpointWater temp
2017-Sep-18 18:11N 34°21' W 007°00'  
2017-Sep-13 14:47N 34°60' W 007°04'1 2.9
2017-Sep-13 14:16N 35°01' W 007°02'1 2.8
2017-Sep-13 14:00N 35°00' W 007°01'1 2.9
2017-Sep-13 13:30N 35°00' W 006°59'3 3.4
2017-Sep-13 12:35N 34°58' W 006°56'5 0.5
2017-Sep-13 02:42N 35°00' W 007°02'1 3.0
2017-Sep-13 02:26N 35°00' W 007°01'  
2017-Sep-08 22:57N 35°46' W 006°48'6 9.6
2017-Sep-08 22:18N 35°45' W 006°41'310.0
2017-Sep-08 22:00N 35°45' W 006°37'  

Dump ship's entire track history